Time;durP1;ratioP1;P1;durP2;ratioP2;P2;SDS_P1;SDS_P2;PMS_P1;PMS_P2;Temp;Humidity;BMP_temperature;BMP_pressure;BME280_temperature;BME280_humidity;BME280_pressure;Samples;Min_cycle;Max_cycle;Signal;HPM_P1;HPM_P2
2022/12/06 00:00:54;;;;;;;14.43;12.03;;;7.30;99.90;;;;;;5073031;28;20459;-68
2022/12/06 00:03:19;;;;;;;15.60;13.90;;;7.20;99.90;;;;;;5073180;28;20552;-70
2022/12/06 00:05:45;;;;;;;13.83;12.03;;;7.20;99.90;;;;;;5072848;28;20250;-70
2022/12/06 00:08:10;;;;;;;17.73;14.50;;;7.20;99.90;;;;;;5072645;28;20233;-70
2022/12/06 00:10:36;;;;;;;13.83;12.43;;;7.20;99.90;;;;;;5073106;28;20162;-70
2022/12/06 00:13:03;;;;;;;14.20;12.70;;;7.20;99.90;;;;;;5071393;28;20175;-70
2022/12/06 00:15:29;;;;;;;14.63;11.40;;;7.20;99.90;;;;;;5072638;28;20632;-70
2022/12/06 00:17:55;;;;;;;12.30;11.10;;;7.20;99.90;;;;;;5072568;28;20449;-70
2022/12/06 00:20:20;;;;;;;12.00;9.60;;;7.20;99.90;;;;;;5073880;28;20491;-71
2022/12/06 00:22:46;;;;;;;10.43;9.43;;;7.30;99.90;;;;;;5076443;28;20163;-70
2022/12/06 00:25:11;;;;;;;10.60;9.60;;;7.30;99.90;;;;;;5076982;28;20197;-71
2022/12/06 00:27:37;;;;;;;11.50;10.20;;;7.30;99.90;;;;;;5076654;28;20207;-71
2022/12/06 00:30:03;;;;;;;9.80;8.80;;;7.40;99.90;;;;;;5076459;28;20697;-71
2022/12/06 00:32:29;;;;;;;11.93;10.83;;;7.40;99.90;;;;;;5076324;28;20165;-70
2022/12/06 00:34:54;;;;;;;10.90;9.70;;;7.30;99.90;;;;;;5076629;28;20459;-71
2022/12/06 00:37:20;;;;;;;11.10;8.83;;;7.20;99.90;;;;;;5076475;28;20595;-70
2022/12/06 00:39:45;;;;;;;9.77;8.77;;;7.20;99.90;;;;;;5076311;28;20582;-70
2022/12/06 00:42:11;;;;;;;10.57;9.57;;;7.30;99.90;;;;;;5075826;28;20175;-70
2022/12/06 00:44:36;;;;;;;11.43;9.50;;;7.30;99.90;;;;;;5076094;28;20281;-71
2022/12/06 00:47:02;;;;;;;11.70;10.27;;;7.20;99.90;;;;;;5076008;28;20228;-70
2022/12/06 00:49:27;;;;;;;11.57;9.80;;;7.20;99.90;;;;;;5076740;28;20167;-70
2022/12/06 00:51:53;;;;;;;9.37;8.40;;;7.10;99.90;;;;;;5076275;28;20212;-71
2022/12/06 00:54:18;;;;;;;9.57;8.53;;;6.90;99.90;;;;;;5076140;28;20251;-70
2022/12/06 00:56:44;;;;;;;10.40;9.30;;;6.90;99.90;;;;;;5075584;28;20540;-70
2022/12/06 00:59:10;;;;;;;11.77;10.57;;;6.80;99.90;;;;;;5075880;28;20254;-70
2022/12/06 01:01:35;;;;;;;11.00;9.90;;;6.80;99.90;;;;;;5076239;28;20199;-70
2022/12/06 01:04:03;;;;;;;10.10;8.50;;;6.70;99.90;;;;;;5057773;28;20855;-70
2022/12/06 01:06:31;;;;;;;11.27;9.03;;;6.70;99.90;;;;;;5075831;28;20209;-70
2022/12/06 01:09:00;;;;;;;10.17;9.10;;;6.60;99.90;;;;;;5075687;28;20435;-70
2022/12/06 01:11:27;;;;;;;9.20;8.40;;;6.60;99.90;;;;;;5074703;28;20447;-70
2022/12/06 01:13:53;;;;;;;9.77;8.60;;;6.50;99.90;;;;;;5075489;28;20408;-70
2022/12/06 01:16:22;;;;;;;8.10;7.30;;;6.40;99.90;;;;;;5057761;28;20456;-70
2022/12/06 01:18:54;;;;;;;8.07;7.33;;;6.40;99.90;;;;;;5075504;28;20429;-70
2022/12/06 01:21:21;;;;;;;7.70;6.90;;;6.30;99.90;;;;;;5075799;28;20416;-70
2022/12/06 01:23:48;;;;;;;7.97;7.20;;;6.30;99.90;;;;;;5057571;28;21012;-69
2022/12/06 01:26:16;;;;;;;8.77;7.50;;;6.40;99.90;;;;;;5075361;28;20918;-70
2022/12/06 01:28:42;;;;;;;7.50;6.73;;;6.40;99.90;;;;;;5075033;28;20462;-69
2022/12/06 01:31:08;;;;;;;7.87;7.17;;;6.50;99.90;;;;;;5076150;28;20405;-69
2022/12/06 01:33:33;;;;;;;7.57;6.87;;;6.50;99.90;;;;;;5057153;28;20420;-68
2022/12/06 01:35:59;;;;;;;9.20;6.63;;;6.50;99.90;;;;;;5075423;28;20254;-68
2022/12/06 01:38:24;;;;;;;7.10;6.40;;;6.50;99.90;;;;;;5056794;28;20286;-69
2022/12/06 01:40:50;;;;;;;9.00;6.90;;;6.50;99.90;;;;;;5075318;28;20167;-70
2022/12/06 01:43:37;;;;;;;8.53;7.50;;;6.50;99.90;;;;;;5074549;28;20233;-70
2022/12/06 01:46:11;;;;;;;7.33;6.63;;;6.50;99.90;;;;;;5075379;28;20652;-70
2022/12/06 01:48:37;;;;;;;6.23;5.63;;;6.50;99.90;;;;;;5075079;28;20426;-70
2022/12/06 01:51:07;;;;;;;6.30;5.70;;;6.50;99.90;;;;;;5074708;28;20411;-70
2022/12/06 01:53:33;;;;;;;7.83;6.57;;;6.50;99.90;;;;;;5072937;28;20413;-70
2022/12/06 01:55:59;;;;;;;6.63;6.03;;;6.50;99.90;;;;;;5075166;28;20431;-70
2022/12/06 01:58:30;;;;;;;6.20;5.60;;;6.60;99.90;;;;;;5074403;28;20802;-70
2022/12/06 02:00:56;;;;;;;6.13;5.63;;;6.50;99.90;;;;;;5074674;28;20153;-70
2022/12/06 02:03:26;;;;;;;6.20;5.57;;;6.50;99.90;;;;;;5073290;28;20885;-70
2022/12/06 02:05:52;;;;;;;5.60;5.10;;;6.50;99.90;;;;;;5074680;28;20195;-70
2022/12/06 02:08:20;;;;;;;7.60;6.40;;;6.60;99.90;;;;;;5074472;28;20917;-70
2022/12/06 02:10:45;;;;;;;5.40;4.90;;;6.70;99.90;;;;;;5074585;28;20454;-71
2022/12/06 02:13:11;;;;;;;5.63;5.10;;;6.70;99.90;;;;;;5073190;28;20431;-71
2022/12/06 02:15:53;;;;;;;6.27;5.20;;;6.70;99.90;;;;;;5074443;28;20276;-71
2022/12/06 02:18:42;;;;;;;5.33;4.90;;;6.80;99.90;;;;;;5074591;28;20266;-71
2022/12/06 02:21:37;;;;;;;6.20;5.60;;;6.70;99.90;;;;;;5056727;28;20896;-71
2022/12/06 02:24:40;;;;;;;7.43;5.17;;;6.60;99.90;;;;;;5074918;28;20519;-70
2022/12/06 02:27:11;;;;;;;5.67;5.07;;;6.60;99.90;;;;;;5073930;28;20813;-70
2022/12/06 02:29:52;;;;;;;5.90;5.30;;;6.60;99.90;;;;;;5074513;28;20495;-71
2022/12/06 02:32:28;;;;;;;6.00;5.40;;;6.70;99.90;;;;;;5074758;28;20381;-70
2022/12/06 02:35:07;;;;;;;6.53;5.50;;;6.60;99.90;;;;;;5074389;28;20407;-71
2022/12/06 02:37:43;;;;;;;6.20;5.60;;;6.50;99.90;;;;;;5074460;28;20470;-70
2022/12/06 02:40:35;;;;;;;5.90;5.30;;;6.40;99.90;;;;;;5074722;28;20438;-70
2022/12/06 02:43:09;;;;;;;5.93;5.33;;;6.50;99.90;;;;;;5073953;28;20983;-71
2022/12/06 02:45:43;;;;;;;4.87;4.47;;;6.50;99.90;;;;;;5073546;28;20392;-70
2022/12/06 02:48:11;;;;;;;5.47;4.97;;;6.60;99.90;;;;;;5074409;28;20418;-71
2022/12/06 02:50:40;;;;;;;5.80;5.30;;;6.60;99.90;;;;;;5074071;28;20393;-70
2022/12/06 02:53:09;;;;;;;6.20;5.60;;;6.60;99.90;;;;;;5074266;28;20482;-70
2022/12/06 02:55:35;;;;;;;5.67;5.13;;;6.60;99.90;;;;;;5074223;28;20400;-70
2022/12/06 02:58:01;;;;;;;6.40;5.80;;;6.60;99.90;;;;;;5073440;28;20410;-69
2022/12/06 03:00:39;;;;;;;8.03;6.50;;;6.70;99.90;;;;;;5074363;28;20888;-69
2022/12/06 03:03:26;;;;;;;6.70;5.67;;;6.70;99.90;;;;;;5055887;28;20156;-69
2022/12/06 03:06:01;;;;;;;8.00;7.07;;;6.70;99.90;;;;;;5073657;28;20412;-70
2022/12/06 03:08:53;;;;;;;7.50;6.80;;;6.70;99.90;;;;;;5073557;28;20423;-70
2022/12/06 03:11:19;;;;;;;6.90;6.30;;;6.80;99.90;;;;;;5073193;28;20421;-69
2022/12/06 03:13:55;;;;;;;9.00;7.00;;;6.70;99.90;;;;;;5072799;28;20413;-69
2022/12/06 03:16:29;;;;;;;7.40;6.70;;;6.80;99.90;;;;;;5073789;28;21012;-70
2022/12/06 03:18:57;;;;;;;7.53;6.83;;;6.90;99.90;;;;;;5073574;28;20428;-69
2022/12/06 03:21:48;;;;;;;7.70;6.97;;;7.00;99.90;;;;;;5073630;28;20407;-69
2022/12/06 03:24:14;;;;;;;7.30;6.60;;;7.00;99.90;;;;;;5073548;28;20447;-70
2022/12/06 03:26:45;;;;;;;6.30;5.70;;;7.00;99.90;;;;;;5073246;28;20764;-70
2022/12/06 03:29:13;;;;;;;8.00;7.20;;;7.00;99.90;;;;;;5073665;28;20452;-70
2022/12/06 03:31:40;;;;;;;7.17;6.50;;;7.10;99.90;;;;;;5073991;28;20752;-69
2022/12/06 03:34:19;;;;;;;8.30;7.37;;;7.20;99.90;;;;;;5073393;28;20395;-70
2022/12/06 03:36:47;;;;;;;7.90;6.83;;;7.10;99.90;;;;;;5073386;28;20761;-70
2022/12/06 03:39:19;;;;;;;7.00;6.30;;;7.00;99.90;;;;;;5055206;28;20476;-70
2022/12/06 03:41:51;;;;;;;6.40;5.80;;;6.90;99.90;;;;;;5072991;28;20778;-70
2022/12/06 03:44:18;;;;;;;7.17;6.43;;;7.00;99.90;;;;;;5072809;28;20447;-70
2022/12/06 03:46:47;;;;;;;6.93;6.30;;;7.00;99.90;;;;;;5073016;28;20409;-70
2022/12/06 03:49:27;;;;;;;11.37;7.90;;;7.00;99.90;;;;;;5072648;28;20400;-70
2022/12/06 03:51:53;;;;;;;8.17;7.43;;;7.20;99.90;;;;;;5053380;28;20441;-70
2022/12/06 03:54:18;;;;;;;7.50;6.80;;;7.10;99.90;;;;;;5053054;28;20460;-70
2022/12/06 03:56:44;;;;;;;7.27;6.63;;;7.10;99.90;;;;;;5052365;28;20770;-70
2022/12/06 03:59:10;;;;;;;7.57;6.83;;;7.10;99.90;;;;;;5052824;28;20172;-70
2022/12/06 04:01:37;;;;;;;6.87;6.23;;;7.10;99.90;;;;;;5053561;28;20179;-70
2022/12/06 04:04:03;;;;;;;7.53;6.83;;;7.10;99.90;;;;;;5052726;28;20451;-69
2022/12/06 04:06:28;;;;;;;8.07;7.00;;;7.10;99.90;;;;;;5053259;28;20908;-70
2022/12/06 04:09:51;;;;;;;7.17;6.47;;;7.00;99.90;;;;;;5053269;28;20460;-70
2022/12/06 04:11:40;;;;;;;7.30;6.10;;;7.00;99.90;;;;;;5056373;28;20170;-70
2022/12/06 04:14:05;;;;;;;7.57;6.80;;;7.10;99.90;;;;;;5072474;28;20407;-70
2022/12/06 04:19:15;;;;;;;7.53;6.80;;;7.00;99.90;;;;;;5073212;28;20159;-70
2022/12/06 04:24:24;;;;;;;6.77;6.07;;;7.00;99.90;;;;;;5073010;28;20565;-70
2022/12/06 04:26:50;;;;;;;8.07;6.10;;;6.90;99.90;;;;;;5072553;28;20396;-69
2022/12/06 04:40:11;;;;;;;8.63;6.60;;;6.90;99.90;;;;;;5072684;28;20444;-70
2022/12/06 04:45:21;;;;;;;7.57;6.83;;;6.90;99.90;;;;;;5072800;28;20194;-69
2022/12/06 04:47:46;;;;;;;9.13;6.90;;;6.90;99.90;;;;;;5072540;28;20420;-70
2022/12/06 04:50:12;;;;;;;9.43;6.93;;;6.80;99.90;;;;;;5072616;28;20166;-70
2022/12/06 04:52:38;;;;;;;10.60;8.33;;;6.80;99.90;;;;;;5072955;28;20168;-70
2022/12/06 04:55:04;;;;;;;7.00;6.30;;;6.80;99.90;;;;;;5072483;28;20170;-70
2022/12/06 04:57:30;;;;;;;7.80;7.10;;;6.80;99.90;;;;;;5072239;28;20192;-70
2022/12/06 04:59:55;;;;;;;8.67;7.80;;;6.80;99.90;;;;;;5072603;28;20403;-70
2022/12/06 05:02:21;;;;;;;8.77;8.00;;;6.80;99.90;;;;;;5072718;28;20170;-70
2022/12/06 05:04:46;;;;;;;9.57;8.57;;;6.90;99.90;;;;;;5072394;28;20286;-69
2022/12/06 05:07:12;;;;;;;9.37;8.33;;;6.80;99.90;;;;;;5055383;28;20188;-70
2022/12/06 05:09:38;;;;;;;9.27;8.27;;;6.70;99.90;;;;;;5057987;28;20167;-70
2022/12/06 05:12:03;;;;;;;9.67;8.77;;;6.60;99.90;;;;;;5056945;28;20298;-70
2022/12/06 05:14:29;;;;;;;9.87;8.87;;;6.60;99.90;;;;;;5075518;28;20543;-70
2022/12/06 05:16:54;;;;;;;9.90;8.73;;;6.60;99.90;;;;;;5076103;28;20591;-70
2022/12/06 05:19:20;;;;;;;10.13;9.13;;;6.50;99.90;;;;;;5075571;28;20707;-70
2022/12/06 05:21:46;;;;;;;9.60;8.70;;;6.50;99.90;;;;;;5075546;28;20707;-70
2022/12/06 05:24:13;;;;;;;10.13;9.07;;;6.70;99.90;;;;;;5075655;28;20198;-70
2022/12/06 05:26:38;;;;;;;11.80;9.50;;;6.80;99.90;;;;;;5075537;28;20571;-70
2022/12/06 05:29:04;;;;;;;11.67;9.50;;;6.80;99.90;;;;;;5074692;28;20871;-70
2022/12/06 05:31:29;;;;;;;12.77;10.10;;;6.80;99.90;;;;;;5075561;28;20241;-70
2022/12/06 05:33:55;;;;;;;10.13;9.00;;;6.90;99.90;;;;;;5074022;28;20175;-70
2022/12/06 05:36:23;;;;;;;10.53;9.23;;;7.00;99.90;;;;;;5075290;28;20174;-70
2022/12/06 05:38:50;;;;;;;13.37;10.20;;;7.00;99.90;;;;;;5074684;28;20216;-70
2022/12/06 05:41:15;;;;;;;16.23;10.50;;;7.10;99.90;;;;;;5075067;28;20776;-70
2022/12/06 05:43:41;;;;;;;10.57;9.43;;;7.00;99.90;;;;;;5074565;28;20923;-70
2022/12/06 05:46:07;;;;;;;10.13;8.70;;;7.10;99.90;;;;;;5075131;28;20409;-70
2022/12/06 05:48:33;;;;;;;12.30;8.97;;;7.10;99.90;;;;;;5074430;28;20188;-70
2022/12/06 05:50:58;;;;;;;11.47;10.03;;;7.10;99.90;;;;;;5075032;28;20187;-70
2022/12/06 05:53:24;;;;;;;10.83;9.60;;;7.10;99.90;;;;;;5075042;28;20884;-70
2022/12/06 05:55:50;;;;;;;9.13;8.23;;;7.10;99.90;;;;;;5074871;28;20252;-69
2022/12/06 05:58:17;;;;;;;10.43;9.33;;;7.10;99.90;;;;;;5074340;28;20505;-70
2022/12/06 06:00:46;;;;;;;10.00;8.73;;;7.10;99.90;;;;;;5075343;28;20171;-70
2022/12/06 06:03:12;;;;;;;10.23;9.20;;;7.10;99.90;;;;;;5074948;28;20402;-70
2022/12/06 06:05:47;;;;;;;9.93;8.40;;;7.20;99.90;;;;;;5074582;28;20426;-70
2022/12/06 06:08:13;;;;;;;9.90;8.80;;;7.10;99.90;;;;;;5056549;28;20688;-69
2022/12/06 06:10:39;;;;;;;10.50;8.07;;;7.20;99.90;;;;;;5074766;28;20398;-69
2022/12/06 06:13:04;;;;;;;8.60;7.63;;;7.20;99.90;;;;;;5073446;28;20167;-70
2022/12/06 06:15:30;;;;;;;10.93;9.90;;;7.10;99.90;;;;;;5074746;28;20172;-70
2022/12/06 06:17:55;;;;;;;10.07;9.07;;;7.20;99.90;;;;;;5074100;28;20247;-69
2022/12/06 06:20:21;;;;;;;8.20;7.40;;;7.20;99.90;;;;;;5074960;28;20219;-70
2022/12/06 06:22:46;;;;;;;6.97;6.30;;;7.10;99.90;;;;;;5074273;28;20166;-69
2022/12/06 06:25:12;;;;;;;6.67;6.07;;;7.20;99.90;;;;;;5074111;28;20262;-70
2022/12/06 06:27:38;;;;;;;7.90;7.13;;;7.10;99.90;;;;;;5073605;28;20205;-69
2022/12/06 06:30:09;;;;;;;12.10;8.13;;;7.20;99.90;;;;;;5074121;28;20212;-69
2022/12/06 06:32:35;;;;;;;6.13;5.57;;;7.20;99.90;;;;;;5073918;28;20967;-69
2022/12/06 06:35:02;;;;;;;6.83;6.23;;;7.10;99.90;;;;;;5073901;28;20402;-69
2022/12/06 06:37:28;;;;;;;6.40;5.80;;;7.20;99.90;;;;;;5073502;28;20441;-70
2022/12/06 06:39:53;;;;;;;6.90;6.20;;;7.20;99.90;;;;;;5073897;28;20399;-69
2022/12/06 06:42:19;;;;;;;6.30;5.70;;;7.40;99.90;;;;;;5055425;28;20689;-69
2022/12/06 06:44:44;;;;;;;7.03;6.43;;;7.40;99.90;;;;;;5073600;28;20242;-70
2022/12/06 06:47:10;;;;;;;9.60;7.50;;;7.40;99.90;;;;;;5073922;28;20195;-70
2022/12/06 06:49:36;;;;;;;6.80;6.17;;;7.40;99.90;;;;;;5073750;28;20178;-70
2022/12/06 06:52:01;;;;;;;8.37;7.50;;;7.30;99.90;;;;;;5074262;28;20172;-70
2022/12/06 06:54:27;;;;;;;8.20;6.80;;;7.30;99.90;;;;;;5073586;28;20163;-70
2022/12/06 06:56:54;;;;;;;7.33;6.47;;;7.20;99.90;;;;;;5073566;28;20212;-70
2022/12/06 06:59:20;;;;;;;6.70;6.10;;;7.30;99.90;;;;;;5071696;28;20176;-70
2022/12/06 07:01:45;;;;;;;7.20;6.50;;;7.30;99.90;;;;;;5055859;28;20399;-70
2022/12/06 07:04:11;;;;;;;9.37;7.70;;;7.40;99.90;;;;;;5074313;28;20205;-70
2022/12/06 07:06:36;;;;;;;6.90;5.43;;;7.40;99.90;;;;;;5073283;28;20626;-70
2022/12/06 07:09:02;;;;;;;6.33;5.63;;;7.40;99.90;;;;;;5073450;28;20712;-70
2022/12/06 07:11:28;;;;;;;6.87;6.13;;;7.50;99.90;;;;;;5072651;28;20653;-71
2022/12/06 07:13:53;;;;;;;7.10;6.40;;;7.40;99.90;;;;;;5072645;28;20175;-71
2022/12/06 07:16:19;;;;;;;6.90;6.20;;;7.40;99.90;;;;;;5055321;28;20203;-70
2022/12/06 07:18:46;;;;;;;6.50;5.90;;;7.40;99.90;;;;;;5073228;28;20190;-70
2022/12/06 07:21:13;;;;;;;9.13;8.33;;;7.40;99.90;;;;;;5073210;28;20177;-70
2022/12/06 07:23:39;;;;;;;6.20;5.60;;;7.30;99.90;;;;;;5073000;28;20472;-70
2022/12/06 07:26:10;;;;;;;6.17;5.57;;;7.20;99.90;;;;;;5073229;28;20949;-70
2022/12/06 07:28:37;;;;;;;7.33;6.53;;;7.20;99.90;;;;;;5072367;28;20202;-70
2022/12/06 07:31:14;;;;;;;6.70;5.90;;;7.10;99.90;;;;;;5054417;28;20406;-70
2022/12/06 07:33:41;;;;;;;6.13;5.53;;;6.80;99.90;;;;;;5073508;28;20418;-70
2022/12/06 07:36:08;;;;;;;5.43;4.93;;;6.80;99.90;;;;;;5072951;28;20404;-70
2022/12/06 07:38:34;;;;;;;4.70;4.30;;;6.90;99.90;;;;;;5054957;28;20430;-70
2022/12/06 07:41:01;;;;;;;5.33;4.93;;;7.00;99.90;;;;;;5073187;28;20819;-70
2022/12/06 07:46:24;;;;;;;6.17;4.70;;;7.10;99.90;;;;;;5039027;28;20417;-71
2022/12/06 07:48:50;;;;;;;6.90;6.13;;;7.10;99.90;;;;;;5072667;28;20428;-71
2022/12/06 07:51:15;;;;;;;6.70;6.00;;;6.90;99.90;;;;;;5073113;28;20174;-71
2022/12/06 07:53:41;;;;;;;6.83;5.80;;;6.80;99.90;;;;;;5072537;28;20179;-71
2022/12/06 07:56:07;;;;;;;6.73;6.00;;;6.80;99.90;;;;;;5073377;28;20169;-71
2022/12/06 07:58:33;;;;;;;8.53;7.40;;;6.90;99.90;;;;;;5072762;28;20431;-71
2022/12/06 08:01:00;;;;;;;10.27;7.77;;;7.10;99.90;;;;;;5073708;28;20762;-70
2022/12/06 08:03:26;;;;;;;9.30;8.00;;;7.20;99.90;;;;;;5073072;28;20225;-72
2022/12/06 08:05:53;;;;;;;7.73;6.90;;;7.20;99.90;;;;;;5055343;28;20417;-71
2022/12/06 08:08:19;;;;;;;11.43;6.63;;;7.30;99.90;;;;;;5055093;28;20246;-72
2022/12/06 08:10:45;;;;;;;8.30;7.03;;;7.30;99.90;;;;;;5073020;28;20408;-72
2022/12/06 08:13:10;;;;;;;7.83;7.03;;;7.40;99.90;;;;;;5072315;28;20496;-72
2022/12/06 08:15:38;;;;;;;7.30;6.43;;;7.40;99.90;;;;;;5072946;28;20271;-72
2022/12/06 08:18:04;;;;;;;7.87;6.60;;;7.60;99.90;;;;;;5055022;28;20193;-72
2022/12/06 08:20:29;;;;;;;7.63;6.90;;;7.60;99.90;;;;;;5072988;28;20411;-71
2022/12/06 08:22:55;;;;;;;7.73;6.70;;;7.60;99.90;;;;;;5073020;28;20173;-70
2022/12/06 08:25:20;;;;;;;9.90;7.53;;;7.70;99.90;;;;;;5073110;28;20205;-70
2022/12/06 08:27:46;;;;;;;7.70;6.47;;;7.80;99.90;;;;;;5072326;28;20207;-70
2022/12/06 08:30:12;;;;;;;7.30;6.57;;;7.60;99.90;;;;;;5073231;28;20221;-70
2022/12/06 08:32:37;;;;;;;8.80;6.37;;;7.20;99.90;;;;;;5072586;28;20604;-70
2022/12/06 08:35:03;;;;;;;7.37;6.63;;;7.10;99.90;;;;;;5072946;28;20173;-70
2022/12/06 08:37:28;;;;;;;6.93;6.10;;;7.00;99.90;;;;;;5054369;28;20204;-70
2022/12/06 08:39:54;;;;;;;6.33;5.73;;;7.10;99.90;;;;;;5072562;28;20202;-70
2022/12/06 08:42:19;;;;;;;6.73;6.03;;;7.10;99.90;;;;;;5072908;28;20188;-70
2022/12/06 08:44:45;;;;;;;7.87;6.83;;;7.00;99.90;;;;;;5076446;28;20257;-71
2022/12/06 08:47:11;;;;;;;6.30;5.70;;;7.20;99.90;;;;;;5076152;28;20183;-71
2022/12/06 08:49:36;;;;;;;5.97;5.40;;;7.20;99.90;;;;;;5058345;28;20170;-71
2022/12/06 08:52:02;;;;;;;7.23;6.57;;;7.10;99.90;;;;;;5076398;28;20170;-71
2022/12/06 08:54:28;;;;;;;6.90;6.20;;;7.10;99.90;;;;;;5076763;28;20243;-71
2022/12/06 08:56:54;;;;;;;7.23;6.20;;;7.00;99.90;;;;;;5058059;28;20179;-71
2022/12/06 08:59:20;;;;;;;7.47;6.77;;;6.90;99.90;;;;;;5075614;28;20402;-70
2022/12/06 09:01:46;;;;;;;7.10;6.40;;;6.80;99.90;;;;;;5076114;28;20412;-71
2022/12/06 09:04:11;;;;;;;7.93;6.60;;;6.90;99.90;;;;;;5076162;28;20555;-70
2022/12/06 09:06:39;;;;;;;7.53;6.83;;;7.10;99.90;;;;;;5076052;28;20160;-70
2022/12/06 09:09:05;;;;;;;7.43;6.73;;;7.20;99.90;;;;;;5075737;28;20184;-71
2022/12/06 09:11:31;;;;;;;9.13;8.17;;;7.20;99.90;;;;;;5075573;28;20481;-73
2022/12/06 09:13:57;;;;;;;8.93;8.03;;;7.10;99.90;;;;;;5074778;28;20426;-71
2022/12/06 09:16:22;;;;;;;9.03;8.13;;;6.80;99.90;;;;;;5075904;28;20171;-70
2022/12/06 09:18:50;;;;;;;7.77;7.07;;;6.80;99.90;;;;;;5075803;28;20212;-72
2022/12/06 09:21:19;;;;;;;8.90;7.73;;;6.90;99.90;;;;;;5075836;28;20164;-72
2022/12/06 09:23:45;;;;;;;10.17;7.83;;;6.70;99.90;;;;;;5075612;28;20455;-71
2022/12/06 09:26:11;;;;;;;9.80;8.80;;;6.90;99.90;;;;;;5075684;28;20495;-71
2022/12/06 09:28:38;;;;;;;10.07;8.60;;;7.00;99.90;;;;;;5075128;28;21038;-71
2022/12/06 09:31:05;;;;;;;9.23;8.10;;;6.80;99.90;;;;;;5075714;28;20167;-71
2022/12/06 09:33:31;;;;;;;9.30;8.40;;;6.90;99.90;;;;;;5057699;28;20468;-71
2022/12/06 09:36:00;;;;;;;9.50;8.53;;;7.10;99.90;;;;;;5075472;28;20407;-72
2022/12/06 09:38:27;;;;;;;9.77;8.80;;;7.20;99.90;;;;;;5057061;28;20191;-72
2022/12/06 09:41:21;;;;;;;9.33;8.43;;;7.30;99.90;;;;;;5075450;28;20767;-71
2022/12/06 09:44:08;;;;;;;9.43;8.53;;;7.20;99.90;;;;;;5074884;28;20449;-71
2022/12/06 09:47:00;;;;;;;9.07;8.07;;;7.10;99.90;;;;;;5075016;28;20441;-72
2022/12/06 09:49:45;;;;;;;15.50;8.50;;;7.10;99.90;;;;;;5075518;28;20388;-71
2022/12/06 09:52:28;;;;;;;14.23;10.33;;;7.10;99.90;;;;;;5075263;28;20837;-71
2022/12/06 09:55:14;;;;;;;11.87;9.90;;;7.10;99.90;;;;;;5074973;28;20829;-71
2022/12/06 09:58:00;;;;;;;10.83;9.53;;;7.10;99.90;;;;;;5074548;28;20440;-71
2022/12/06 10:00:28;;;;;;;11.20;10.10;;;6.70;99.90;;;;;;5074142;28;20480;-71
2022/12/06 10:03:09;;;;;;;11.33;10.13;;;6.70;99.90;;;;;;5075144;28;20410;-71
2022/12/06 10:05:56;;;;;;;13.37;11.13;;;6.90;99.90;;;;;;5075141;28;20525;-71
2022/12/06 10:08:30;;;;;;;14.67;12.90;;;6.80;99.90;;;;;;5074956;28;20437;-71
2022/12/06 10:11:06;;;;;;;12.80;11.40;;;6.90;99.90;;;;;;5075174;28;20385;-71
2022/12/06 10:14:14;;;;;;;14.43;12.60;;;7.00;99.90;;;;;;5073489;28;20425;-71
2022/12/06 10:16:53;;;;;;;13.03;11.60;;;7.00;99.90;;;;;;5074848;28;20750;-71
2022/12/06 10:20:06;;;;;;;16.53;12.17;;;6.80;99.90;;;;;;5075109;28;20431;-71
2022/12/06 10:22:54;;;;;;;15.47;13.87;;;6.80;99.90;;;;;;5067832;28;20947;-71
2022/12/06 10:25:40;;;;;;;16.00;13.73;;;6.90;99.90;;;;;;5074653;28;20491;-71
2022/12/06 10:28:10;;;;;;;13.10;11.30;;;6.90;99.90;;;;;;5073735;28;20442;-71
2022/12/06 10:30:44;;;;;;;14.83;12.57;;;7.00;99.90;;;;;;5074300;28;20389;-71
2022/12/06 10:33:22;;;;;;;16.17;12.43;;;7.10;99.90;;;;;;5074546;28;20396;-71
2022/12/06 10:36:02;;;;;;;19.23;13.10;;;7.10;99.90;;;;;;5074469;28;20379;-71
2022/12/06 10:38:50;;;;;;;16.80;13.30;;;7.30;99.90;;;;;;5074299;28;20781;-71
2022/12/06 10:41:21;;;;;;;13.40;12.00;;;7.20;99.90;;;;;;5074734;28;20558;-71
2022/12/06 10:43:54;;;;;;;14.03;12.40;;;7.30;99.90;;;;;;5073757;28;20891;-70
2022/12/06 10:47:03;;;;;;;14.00;12.60;;;7.50;99.90;;;;;;5074457;28;20429;-70
2022/12/06 10:49:39;;;;;;;12.87;11.40;;;7.10;99.90;;;;;;5056138;28;20945;-71
2022/12/06 10:52:25;;;;;;;14.73;12.00;;;6.90;99.90;;;;;;5074663;28;20436;-70
2022/12/06 10:55:01;;;;;;;15.17;12.30;;;6.90;99.90;;;;;;5033544;28;20432;-70
2022/12/06 10:57:33;;;;;;;16.07;13.50;;;7.10;99.90;;;;;;5055624;28;20495;-71
2022/12/06 11:00:26;;;;;;;15.63;13.20;;;7.30;99.90;;;;;;5073766;28;20387;-70
2022/12/06 11:03:10;;;;;;;14.50;12.90;;;7.30;99.90;;;;;;5055396;28;20412;-71
2022/12/06 11:05:38;;;;;;;13.00;10.90;;;7.40;99.90;;;;;;5073159;28;20547;-71
2022/12/06 11:08:22;;;;;;;13.23;11.83;;;7.10;99.90;;;;;;5073734;28;21019;-73
2022/12/06 11:10:50;;;;;;;16.47;12.50;;;6.90;99.90;;;;;;5074229;28;20516;-71
2022/12/06 11:13:43;;;;;;;13.30;10.90;;;6.80;99.90;;;;;;5072345;28;20825;-71
2022/12/06 11:16:29;;;;;;;14.50;11.50;;;7.00;99.90;;;;;;5043890;28;20935;-71
2022/12/06 11:19:17;;;;;;;12.40;10.83;;;7.00;99.90;;;;;;5073630;28;20444;-72
2022/12/06 11:21:59;;;;;;;15.60;11.30;;;6.90;99.90;;;;;;5074034;28;20530;-71
2022/12/06 11:24:30;;;;;;;12.50;10.70;;;6.80;99.90;;;;;;5073511;28;20441;-71
2022/12/06 11:27:33;;;;;;;15.93;12.27;;;6.70;99.90;;;;;;5073412;28;20389;-70
2022/12/06 11:30:02;;;;;;;15.63;11.40;;;6.70;99.90;;;;;;5073202;28;20931;-70
2022/12/06 11:32:28;;;;;;;13.23;10.80;;;6.80;99.90;;;;;;5073682;28;20499;-70
2022/12/06 11:34:59;;;;;;;13.73;10.33;;;6.80;99.90;;;;;;5073784;28;20496;-70
2022/12/06 11:37:30;;;;;;;12.43;9.43;;;6.80;99.90;;;;;;5073308;28;20434;-71
2022/12/06 11:40:05;;;;;;;11.23;10.03;;;6.80;99.90;;;;;;5054930;28;20489;-71
2022/12/06 11:42:31;;;;;;;13.53;11.40;;;6.70;99.90;;;;;;5073559;28;20925;-70
2022/12/06 11:45:06;;;;;;;13.57;11.10;;;6.70;99.90;;;;;;5072834;28;20496;-71
2022/12/06 11:47:32;;;;;;;11.40;9.87;;;6.70;99.90;;;;;;5072971;28;20784;-71
2022/12/06 11:49:58;;;;;;;13.17;10.07;;;6.70;99.90;;;;;;5073559;28;20540;-70
2022/12/06 11:52:37;;;;;;;10.13;8.53;;;6.60;99.90;;;;;;5074562;28;20166;-71
2022/12/06 11:55:12;;;;;;;12.17;8.93;;;6.50;99.90;;;;;;5073286;28;20194;-71
2022/12/06 11:57:48;;;;;;;10.40;8.60;;;6.40;99.90;;;;;;5056017;28;20566;-72
2022/12/06 12:00:20;;;;;;;9.40;7.90;;;6.30;99.90;;;;;;5073306;28;20414;-71
2022/12/06 12:02:47;;;;;;;12.20;8.80;;;6.40;99.90;;;;;;5073223;28;20392;-70
2022/12/06 12:05:16;;;;;;;11.70;8.83;;;6.40;99.90;;;;;;5073358;28;20444;-71
2022/12/06 12:07:44;;;;;;;9.23;8.20;;;6.40;99.90;;;;;;5073515;28;20835;-71
2022/12/06 12:10:31;;;;;;;9.60;7.70;;;6.30;99.90;;;;;;5073097;28;20402;-72
2022/12/06 12:15:54;;;;;;;10.80;8.23;;;6.20;99.90;;;;;;5073283;28;20373;-71
2022/12/06 12:18:28;;;;;;;10.40;7.50;;;6.20;99.90;;;;;;5077117;28;21055;-70
2022/12/06 12:20:55;;;;;;;12.20;7.90;;;6.20;99.90;;;;;;5077105;28;20383;-70
2022/12/06 12:23:28;;;;;;;10.87;8.40;;;6.50;99.90;;;;;;5076888;28;20496;-75
2022/12/06 12:26:09;;;;;;;10.73;6.70;;;6.40;99.90;;;;;;5077267;28;20886;-71
2022/12/06 12:28:37;;;;;;;11.20;7.90;;;6.40;99.90;;;;;;5076456;28;20548;-71
2022/12/06 12:31:19;;;;;;;8.50;6.27;;;6.40;99.90;;;;;;5076710;28;20436;-71
2022/12/06 12:33:45;;;;;;;8.70;5.73;;;6.30;99.90;;;;;;5076661;28;20408;-71
2022/12/06 12:36:20;;;;;;;8.20;7.20;;;6.10;99.90;;;;;;5076787;28;20455;-71
2022/12/06 12:38:52;;;;;;;8.03;6.03;;;6.20;99.90;;;;;;5076971;28;20422;-71
2022/12/06 12:41:41;;;;;;;5.83;5.07;;;6.20;99.90;;;;;;5076860;28;20402;-72
2022/12/06 12:44:25;;;;;;;5.50;4.60;;;6.30;99.90;;;;;;5076082;28;20818;-71
2022/12/06 12:47:03;;;;;;;9.40;6.53;;;6.30;99.90;;;;;;5077039;28;20416;-72
2022/12/06 12:49:34;;;;;;;7.60;5.80;;;6.30;99.90;;;;;;5077028;28;20388;-71
2022/12/06 12:52:01;;;;;;;7.87;5.40;;;6.30;99.90;;;;;;5076749;28;20404;-71
2022/12/06 12:54:36;;;;;;;5.90;4.57;;;6.20;99.90;;;;;;5076892;28;20407;-71
2022/12/06 12:57:10;;;;;;;5.07;4.30;;;6.20;99.90;;;;;;5058686;28;20423;-72
2022/12/06 12:59:39;;;;;;;5.63;4.17;;;6.20;99.90;;;;;;5058464;28;20413;-71
2022/12/06 13:02:27;;;;;;;5.80;5.00;;;6.30;99.90;;;;;;5076559;28;20918;-71
2022/12/06 13:05:03;;;;;;;7.67;5.07;;;6.30;99.90;;;;;;5077221;28;20440;-72
2022/12/06 13:07:33;;;;;;;6.47;4.70;;;6.10;99.90;;;;;;5076639;28;20424;-71
2022/12/06 13:10:25;;;;;;;5.33;4.80;;;6.10;99.90;;;;;;5058120;28;20924;-70
2022/12/06 13:12:58;;;;;;;6.90;4.40;;;6.10;99.90;;;;;;5074987;28;20449;-71
2022/12/06 13:15:39;;;;;;;4.43;4.03;;;6.10;99.90;;;;;;5076345;28;20392;-71
2022/12/06 13:18:22;;;;;;;7.50;6.03;;;6.20;99.90;;;;;;5075403;28;20432;-70
2022/12/06 13:20:50;;;;;;;5.27;4.77;;;6.20;99.90;;;;;;5076001;28;20879;-70
2022/12/06 13:23:19;;;;;;;5.30;4.80;;;6.20;99.90;;;;;;5075590;28;20516;-71
2022/12/06 13:26:01;;;;;;;4.97;4.47;;;6.30;99.90;;;;;;5057340;28;20488;-70
2022/12/06 13:28:33;;;;;;;5.73;4.90;;;6.40;99.90;;;;;;5074223;28;20449;-71
2022/12/06 13:31:05;;;;;;;5.07;4.50;;;6.50;99.90;;;;;;5075860;28;20725;-69
2022/12/06 13:33:33;;;;;;;4.67;4.17;;;6.50;99.90;;;;;;5075961;28;20389;-70